Island Pond, Vermont
Current Conditions -  °F | °C
As of 1:15 PM on Sunday 25 Jan 2015 (Local Time) from KEFK Reporting Station
Broken Clouds Broken Clouds  
Wind Chill: -10°   Ceiling: 2400
Heat Index:   Visibility: 10mi
Dew Point: -3°   Wind: 13mph
Humidity: 65%   Direction: 300°WNW
Pressure: 29.72"   Gusts: NA
Location:  44.81°N, 71.88°W
Report Text: KEFK 251815Z AUTO 30011KT 10SM BKN024 M14/M20 A2972 RMK AO2 T11431196
Loading
Personal Weather Stations






























Interactive Weather Map New forecast layout! Learn more

10-Day Weather Forecast

Advertisements
Track Severe Weather on mobile